sensor_id;sensor_type;location;lat;lon;timestamp;pressure;altitude;pressure_sealevel;temperature;humidity
75192;BME280;63771;52.580;9.734;2024-03-02T00:00:01;100022.63;;;8.47;90.15
75192;BME280;63771;52.580;9.734;2024-03-02T00:02:39;100023.25;;;8.44;89.72
75192;BME280;63771;52.580;9.734;2024-03-02T00:05:04;100015.63;;;8.44;90.05
75192;BME280;63771;52.580;9.734;2024-03-02T00:07:30;100010.31;;;8.41;90.12
75192;BME280;63771;52.580;9.734;2024-03-02T00:09:56;100015.53;;;8.43;90.21
75192;BME280;63771;52.580;9.734;2024-03-02T00:12:22;100013.09;;;8.44;90.59
75192;BME280;63771;52.580;9.734;2024-03-02T00:14:47;100023.25;;;8.44;90.33
75192;BME280;63771;52.580;9.734;2024-03-02T00:17:17;100014.75;;;8.44;90.29
75192;BME280;63771;52.580;9.734;2024-03-02T00:19:46;100022.63;;;8.47;90.26
75192;BME280;63771;52.580;9.734;2024-03-02T00:22:11;100022.63;;;8.47;89.74
75192;BME280;63771;52.580;9.734;2024-03-02T00:24:37;100021.84;;;8.48;89.66
75192;BME280;63771;52.580;9.734;2024-03-02T00:27:04;100018.44;;;8.47;89.60
75192;BME280;63771;52.580;9.734;2024-03-02T00:29:30;100027.03;;;8.49;89.31
75192;BME280;63771;52.580;9.734;2024-03-02T00:31:55;100027.03;;;8.49;89.88
75192;BME280;63771;52.580;9.734;2024-03-02T00:34:21;100026.16;;;8.49;89.51
75192;BME280;63771;52.580;9.734;2024-03-02T00:36:47;100027.81;;;8.48;90.05
75192;BME280;63771;52.580;9.734;2024-03-02T00:39:14;100029.47;;;8.48;90.06
75192;BME280;63771;52.580;9.734;2024-03-02T00:41:41;100030.25;;;8.47;89.50
75192;BME280;63771;52.580;9.734;2024-03-02T00:44:09;100031.75;;;8.45;89.34
75192;BME280;63771;52.580;9.734;2024-03-02T00:46:38;100041.03;;;8.44;89.53
75192;BME280;63771;52.580;9.734;2024-03-02T00:49:05;100023.41;;;8.46;90.25
75192;BME280;63771;52.580;9.734;2024-03-02T00:51:37;100026.69;;;8.45;90.35
75192;BME280;63771;52.580;9.734;2024-03-02T00:54:05;100025.03;;;8.45;90.22
75192;BME280;63771;52.580;9.734;2024-03-02T00:56:32;100031.75;;;8.45;90.34
75192;BME280;63771;52.580;9.734;2024-03-02T00:58:57;100034.19;;;8.43;90.53
75192;BME280;63771;52.580;9.734;2024-03-02T01:01:23;100029.00;;;8.42;90.72
75192;BME280;63771;52.580;9.734;2024-03-02T01:03:49;100040.94;;;8.43;90.48
75192;BME280;63771;52.580;9.734;2024-03-02T01:06:15;100034.84;;;8.41;90.44
75192;BME280;63771;52.580;9.734;2024-03-02T01:08:41;100026.31;;;8.40;90.62
75192;BME280;63771;52.580;9.734;2024-03-02T01:11:07;100031.41;;;8.40;90.55
75192;BME280;63771;52.580;9.734;2024-03-02T01:13:33;100035.59;;;8.40;90.65
75192;BME280;63771;52.580;9.734;2024-03-02T01:15:58;100036.47;;;8.40;90.81
75192;BME280;63771;52.580;9.734;2024-03-02T01:18:24;100039.69;;;8.38;90.28
75192;BME280;63771;52.580;9.734;2024-03-02T01:20:50;100037.63;;;8.33;90.17
75192;BME280;63771;52.580;9.734;2024-03-02T01:23:21;100036.84;;;8.34;90.50
75192;BME280;63771;52.580;9.734;2024-03-02T01:25:50;100040.16;;;8.33;90.35
75192;BME280;63771;52.580;9.734;2024-03-02T01:28:16;100040.16;;;8.33;90.67
75192;BME280;63771;52.580;9.734;2024-03-02T01:30:41;100040.16;;;8.33;91.03
75192;BME280;63771;52.580;9.734;2024-03-02T01:33:07;100034.84;;;8.30;90.59
75192;BME280;63771;52.580;9.734;2024-03-02T01:35:33;100030.41;;;8.28;90.46
75192;BME280;63771;52.580;9.734;2024-03-02T01:37:58;100030.91;;;8.24;90.33
75192;BME280;63771;52.580;9.734;2024-03-02T01:40:24;100026.72;;;8.24;90.72
75192;BME280;63771;52.580;9.734;2024-03-02T01:42:53;100020.66;;;8.22;90.64
75192;BME280;63771;52.580;9.734;2024-03-02T01:45:23;100014.31;;;8.17;90.43
75192;BME280;63771;52.580;9.734;2024-03-02T01:47:49;100007.47;;;8.16;91.25
75192;BME280;63771;52.580;9.734;2024-03-02T01:50:14;100012.53;;;8.16;91.58
75192;BME280;63771;52.580;9.734;2024-03-02T01:52:40;100019.28;;;8.16;91.63
75192;BME280;63771;52.580;9.734;2024-03-02T01:55:06;100014.81;;;8.13;91.13
75192;BME280;63771;52.580;9.734;2024-03-02T01:57:33;100005.31;;;8.10;91.58
75192;BME280;63771;52.580;9.734;2024-03-02T01:59:59;99999.75;;;8.04;91.52
75192;BME280;63771;52.580;9.734;2024-03-02T02:02:25;100000.38;;;8.02;91.53
75192;BME280;63771;52.580;9.734;2024-03-02T02:04:50;99996.84;;;8.00;91.94
75192;BME280;63771;52.580;9.734;2024-03-02T02:07:15;99994.16;;;7.98;91.83
75192;BME280;63771;52.580;9.734;2024-03-02T02:09:41;99991.75;;;8.00;92.27
75192;BME280;63771;52.580;9.734;2024-03-02T02:12:07;99990.13;;;8.00;92.50
75192;BME280;63771;52.580;9.734;2024-03-02T02:14:33;99986.69;;;8.00;92.84
75192;BME280;63771;52.580;9.734;2024-03-02T02:16:58;99987.19;;;7.96;93.12
75192;BME280;63771;52.580;9.734;2024-03-02T02:19:24;99993.28;;;7.98;92.92
75192;BME280;63771;52.580;9.734;2024-03-02T02:21:49;99990.00;;;7.99;93.45
75192;BME280;63771;52.580;9.734;2024-03-02T02:24:14;99988.09;;;7.96;92.99
75192;BME280;63771;52.580;9.734;2024-03-02T02:26:40;99981.88;;;7.93;93.23
75192;BME280;63771;52.580;9.734;2024-03-02T02:29:05;99978.06;;;7.88;92.92
75192;BME280;63771;52.580;9.734;2024-03-02T02:31:37;99971.50;;;7.79;93.16
75192;BME280;63771;52.580;9.734;2024-03-02T02:34:03;99978.47;;;7.82;93.90
75192;BME280;63771;52.580;9.734;2024-03-02T02:36:28;99977.56;;;7.81;93.74
75192;BME280;63771;52.580;9.734;2024-03-02T02:38:54;99980.63;;;7.77;93.36
75192;BME280;63771;52.580;9.734;2024-03-02T02:41:19;99983.81;;;7.75;93.73
75192;BME280;63771;52.580;9.734;2024-03-02T02:43:44;99969.47;;;7.75;94.01
75192;BME280;63771;52.580;9.734;2024-03-02T02:46:10;99969.22;;;7.72;93.99
75192;BME280;63771;52.580;9.734;2024-03-02T02:48:35;99987.38;;;7.77;94.11
75192;BME280;63771;52.580;9.734;2024-03-02T02:51:01;99982.94;;;7.74;94.17
75192;BME280;63771;52.580;9.734;2024-03-02T02:53:26;99974.28;;;7.72;94.14
75192;BME280;63771;52.580;9.734;2024-03-02T02:55:51;99969.88;;;7.70;94.00
75192;BME280;63771;52.580;9.734;2024-03-02T02:58:17;99976.50;;;7.68;94.03
75192;BME280;63771;52.580;9.734;2024-03-02T03:00:42;99965.31;;;7.66;94.49
75192;BME280;63771;52.580;9.734;2024-03-02T03:03:08;99972.28;;;7.68;94.94
75192;BME280;63771;52.580;9.734;2024-03-02T03:05:33;99967.22;;;7.68;95.00
75192;BME280;63771;52.580;9.734;2024-03-02T03:07:58;99962.41;;;7.61;94.65
75192;BME280;63771;52.580;9.734;2024-03-02T03:10:23;99964.94;;;7.61;94.75
75192;BME280;63771;52.580;9.734;2024-03-02T03:12:51;99974.84;;;7.58;94.85
75192;BME280;63771;52.580;9.734;2024-03-02T03:15:16;99962.94;;;7.57;95.10
75192;BME280;63771;52.580;9.734;2024-03-02T03:17:42;99959.38;;;7.55;95.18
75192;BME280;63771;52.580;9.734;2024-03-02T03:20:07;99969.28;;;7.52;95.29
75192;BME280;63771;52.580;9.734;2024-03-02T03:22:37;99964.22;;;7.52;95.51
75192;BME280;63771;52.580;9.734;2024-03-02T03:25:02;99967.25;;;7.48;95.59
75192;BME280;63771;52.580;9.734;2024-03-02T03:27:28;99967.88;;;7.45;94.94
75192;BME280;63771;52.580;9.734;2024-03-02T03:29:53;99963.44;;;7.43;96.01
75192;BME280;63771;52.580;9.734;2024-03-02T03:32:19;99960.03;;;7.42;95.71
75192;BME280;63771;52.580;9.734;2024-03-02T03:34:44;99956.34;;;7.39;95.61
75192;BME280;63771;52.580;9.734;2024-03-02T03:37:10;99966.38;;;7.37;95.40
75192;BME280;63771;52.580;9.734;2024-03-02T03:39:36;99956.84;;;7.35;95.61
75192;BME280;63771;52.580;9.734;2024-03-02T03:42:01;99966.00;;;7.32;95.92
75192;BME280;63771;52.580;9.734;2024-03-02T03:44:26;99953.69;;;7.27;95.84
75192;BME280;63771;52.580;9.734;2024-03-02T03:46:51;99958.63;;;7.25;96.11
75192;BME280;63771;52.580;9.734;2024-03-02T03:49:17;99951.66;;;7.23;96.57
75192;BME280;63771;52.580;9.734;2024-03-02T03:51:43;99950.50;;;7.19;96.24
75192;BME280;63771;52.580;9.734;2024-03-02T03:54:08;99951.56;;;7.21;96.33
75192;BME280;63771;52.580;9.734;2024-03-02T03:56:36;99952.44;;;7.22;96.42
75192;BME280;63771;52.580;9.734;2024-03-02T03:59:01;99951.28;;;7.18;96.74
75192;BME280;63771;52.580;9.734;2024-03-02T04:01:27;99948.13;;;7.21;96.97
75192;BME280;63771;52.580;9.734;2024-03-02T04:03:52;99951.28;;;7.18;96.48
75192;BME280;63771;52.580;9.734;2024-03-02T04:06:17;99956.13;;;7.15;96.35
75192;BME280;63771;52.580;9.734;2024-03-02T04:08:43;99946.47;;;7.11;96.57
75192;BME280;63771;52.580;9.734;2024-03-02T04:11:08;99961.19;;;7.15;97.00
75192;BME280;63771;52.580;9.734;2024-03-02T04:13:33;99944.06;;;7.13;96.67
75192;BME280;63771;52.580;9.734;2024-03-02T04:15:59;99945.59;;;7.11;96.78
75192;BME280;63771;52.580;9.734;2024-03-02T04:18:24;99946.47;;;7.11;96.66
75192;BME280;63771;52.580;9.734;2024-03-02T04:20:49;99948.25;;;7.12;96.57
75192;BME280;63771;52.580;9.734;2024-03-02T04:23:15;99947.09;;;7.09;96.37
75192;BME280;63771;52.580;9.734;2024-03-02T04:25:40;99947.09;;;7.09;96.58
75192;BME280;63771;52.580;9.734;2024-03-02T04:28:06;99946.09;;;7.06;96.03
75192;BME280;63771;52.580;9.734;2024-03-02T04:30:31;99953.59;;;7.05;96.26
75192;BME280;63771;52.580;9.734;2024-03-02T04:32:56;99949.25;;;7.04;96.72
75192;BME280;63771;52.580;9.734;2024-03-02T04:35:22;99950.91;;;7.03;96.63
75192;BME280;63771;52.580;9.734;2024-03-02T04:37:47;99960.16;;;7.03;96.49
75192;BME280;63771;52.580;9.734;2024-03-02T04:40:12;99959.94;;;7.00;96.38
75192;BME280;63771;52.580;9.734;2024-03-02T04:42:38;99970.06;;;7.00;96.34
75192;BME280;63771;52.580;9.734;2024-03-02T04:45:03;99976.53;;;6.96;96.33
75192;BME280;63771;52.580;9.734;2024-03-02T04:47:29;99976.41;;;6.95;96.33
75192;BME280;63771;52.580;9.734;2024-03-02T04:49:54;99979.56;;;6.92;96.53
75192;BME280;63771;52.580;9.734;2024-03-02T04:52:19;99990.47;;;6.91;96.17
75192;BME280;63771;52.580;9.734;2024-03-02T04:54:45;99977.50;;;6.88;96.42
75192;BME280;63771;52.580;9.734;2024-03-02T04:57:29;99977.13;;;6.84;96.21
75192;BME280;63771;52.580;9.734;2024-03-02T04:59:54;99985.50;;;6.83;96.46
75192;BME280;63771;52.580;9.734;2024-03-02T05:02:19;99989.94;;;6.85;96.83
75192;BME280;63771;52.580;9.734;2024-03-02T05:04:44;99978.16;;;6.75;96.05
75192;BME280;63771;52.580;9.734;2024-03-02T05:07:10;99984.47;;;6.70;95.87
75192;BME280;63771;52.580;9.734;2024-03-02T05:09:35;99981.03;;;6.60;96.04
75192;BME280;63771;52.580;9.734;2024-03-02T05:12:01;99989.88;;;6.54;96.05
75192;BME280;63771;52.580;9.734;2024-03-02T05:14:45;99978.72;;;6.42;96.78
75192;BME280;63771;52.580;9.734;2024-03-02T05:17:10;99980.44;;;6.33;97.11
75192;BME280;63771;52.580;9.734;2024-03-02T05:19:36;99978.78;;;6.34;97.61
75192;BME280;63771;52.580;9.734;2024-03-02T05:22:01;99977.91;;;6.33;97.64
75192;BME280;63771;52.580;9.734;2024-03-02T05:24:27;99980.94;;;6.29;98.07
75192;BME280;63771;52.580;9.734;2024-03-02T05:26:53;99975.88;;;6.29;98.26
75192;BME280;63771;52.580;9.734;2024-03-02T05:29:18;99973.22;;;6.27;98.76
75192;BME280;63771;52.580;9.734;2024-03-02T05:31:44;99979.28;;;6.30;99.19
75192;BME280;63771;52.580;9.734;2024-03-02T05:34:09;99973.22;;;6.27;99.02
75192;BME280;63771;52.580;9.734;2024-03-02T05:36:34;99975.59;;;6.26;99.30
75192;BME280;63771;52.580;9.734;2024-03-02T05:38:59;99979.03;;;6.26;99.27
75192;BME280;63771;52.580;9.734;2024-03-02T05:41:25;99983.34;;;6.27;99.19
75192;BME280;63771;52.580;9.734;2024-03-02T05:43:50;99979.16;;;6.28;99.40
75192;BME280;63771;52.580;9.734;2024-03-02T05:46:15;99980.66;;;6.26;99.08
75192;BME280;63771;52.580;9.734;2024-03-02T05:48:41;99972.16;;;6.25;99.41
75192;BME280;63771;52.580;9.734;2024-03-02T05:51:06;99980.81;;;6.27;99.39
75192;BME280;63771;52.580;9.734;2024-03-02T05:53:32;99978.28;;;6.27;99.36
75192;BME280;63771;52.580;9.734;2024-03-02T05:55:57;99990.94;;;6.27;98.84
75192;BME280;63771;52.580;9.734;2024-03-02T05:58:22;99994.34;;;6.28;99.63
75192;BME280;63771;52.580;9.734;2024-03-02T06:01:18;99995.38;;;6.30;99.24
75192;BME280;63771;52.580;9.734;2024-03-02T06:03:44;100004.88;;;6.33;99.14
75192;BME280;63771;52.580;9.734;2024-03-02T06:06:09;99999.28;;;6.26;98.91
75192;BME280;63771;52.580;9.734;2024-03-02T06:08:35;100003.19;;;6.23;98.95
75192;BME280;63771;52.580;9.734;2024-03-02T06:11:00;100003.56;;;6.17;98.77
75192;BME280;63771;52.580;9.734;2024-03-02T06:13:25;100000.53;;;6.21;99.34
75192;BME280;63771;52.580;9.734;2024-03-02T06:15:51;99991.38;;;6.13;98.93
75192;BME280;63771;52.580;9.734;2024-03-02T06:18:17;99992.34;;;6.05;98.66
75192;BME280;63771;52.580;9.734;2024-03-02T06:20:42;99989.19;;;5.89;98.94
75192;BME280;63771;52.580;9.734;2024-03-02T06:23:08;99996.25;;;5.83;99.29
75192;BME280;63771;52.580;9.734;2024-03-02T06:25:33;100002.06;;;5.82;99.76
75192;BME280;63771;52.580;9.734;2024-03-02T06:27:58;100004.31;;;5.79;100.00
75192;BME280;63771;52.580;9.734;2024-03-02T06:30:24;100005.06;;;5.78;100.00
75192;BME280;63771;52.580;9.734;2024-03-02T06:32:49;100012.66;;;5.78;100.00
75192;BME280;63771;52.580;9.734;2024-03-02T06:35:15;100017.59;;;5.76;100.00
75192;BME280;63771;52.580;9.734;2024-03-02T06:37:40;100016.44;;;5.72;100.00
75192;BME280;63771;52.580;9.734;2024-03-02T06:40:06;100010.34;;;5.70;100.00
75192;BME280;63771;52.580;9.734;2024-03-02T06:42:35;100015.66;;;5.73;100.00
75192;BME280;63771;52.580;9.734;2024-03-02T06:45:02;100019.09;;;5.74;100.00
75192;BME280;63771;52.580;9.734;2024-03-02T06:47:28;100027.09;;;5.79;100.00
75192;BME280;63771;52.580;9.734;2024-03-02T06:49:53;100022.91;;;5.79;100.00
75192;BME280;63771;52.580;9.734;2024-03-02T06:52:19;100023.31;;;5.84;100.00
75192;BME280;63771;52.580;9.734;2024-03-02T06:54:45;100031.19;;;5.87;100.00
75192;BME280;63771;52.580;9.734;2024-03-02T06:57:10;100033.84;;;5.88;100.00
75192;BME280;63771;52.580;9.734;2024-03-02T06:59:36;100033.84;;;5.97;100.00
75192;BME280;63771;52.580;9.734;2024-03-02T07:02:01;100032.84;;;6.05;100.00
75192;BME280;63771;52.580;9.734;2024-03-02T07:04:27;100030.06;;;6.02;100.00
75192;BME280;63771;52.580;9.734;2024-03-02T07:06:52;100036.78;;;6.01;100.00
75192;BME280;63771;52.580;9.734;2024-03-02T07:09:17;100034.38;;;6.03;100.00
75192;BME280;63771;52.580;9.734;2024-03-02T07:11:43;100035.78;;;6.10;100.00
75192;BME280;63771;52.580;9.734;2024-03-02T07:14:08;100040.66;;;6.17;100.00
75192;BME280;63771;52.580;9.734;2024-03-02T07:16:34;100039.13;;;6.19;100.00
75192;BME280;63771;52.580;9.734;2024-03-02T07:19:02;100036.72;;;6.20;100.00
75192;BME280;63771;52.580;9.734;2024-03-02T07:21:28;100051.84;;;6.29;100.00
75192;BME280;63771;52.580;9.734;2024-03-02T07:23:53;100048.44;;;6.28;100.00
75192;BME280;63771;52.580;9.734;2024-03-02T07:26:19;100049.72;;;6.34;100.00
75192;BME280;63771;52.580;9.734;2024-03-02T07:28:46;100051.91;;;6.39;100.00
75192;BME280;63771;52.580;9.734;2024-03-02T07:31:12;100056.59;;;6.45;100.00
75192;BME280;63771;52.580;9.734;2024-03-02T07:33:38;100052.34;;;6.54;100.00
75192;BME280;63771;52.580;9.734;2024-03-02T07:36:03;100057.44;;;6.64;100.00
75192;BME280;63771;52.580;9.734;2024-03-02T07:38:29;100057.22;;;6.71;100.00
75192;BME280;63771;52.580;9.734;2024-03-02T07:40:55;100059.50;;;6.78;100.00
75192;BME280;63771;52.580;9.734;2024-03-02T07:43:21;100060.06;;;6.85;100.00
75192;BME280;63771;52.580;9.734;2024-03-02T07:45:46;100064.75;;;6.90;100.00
75192;BME280;63771;52.580;9.734;2024-03-02T07:48:12;100069.94;;;6.92;100.00
75192;BME280;63771;52.580;9.734;2024-03-02T07:50:38;100067.94;;;6.98;100.00
75192;BME280;63771;52.580;9.734;2024-03-02T07:53:04;100056.53;;;7.03;100.00
75192;BME280;63771;52.580;9.734;2024-03-02T07:55:30;100055.28;;;7.08;100.00
75192;BME280;63771;52.580;9.734;2024-03-02T07:57:56;100067.47;;;7.12;100.00
75192;BME280;63771;52.580;9.734;2024-03-02T08:00:22;100071.50;;;7.20;100.00
75192;BME280;63771;52.580;9.734;2024-03-02T08:02:48;100073.56;;;7.24;100.00
75192;BME280;63771;52.580;9.734;2024-03-02T08:05:14;100066.34;;;7.29;100.00
75192;BME280;63771;52.580;9.734;2024-03-02T08:07:39;100073.72;;;7.36;100.00
75192;BME280;63771;52.580;9.734;2024-03-02T08:10:05;100069.16;;;7.42;100.00
75192;BME280;63771;52.580;9.734;2024-03-02T08:12:30;100074.63;;;7.47;100.00
75192;BME280;63771;52.580;9.734;2024-03-02T08:14:56;100065.97;;;7.55;100.00
75192;BME280;63771;52.580;9.734;2024-03-02T08:17:21;100070.66;;;7.61;100.00
75192;BME280;63771;52.580;9.734;2024-03-02T08:19:46;100060.88;;;7.65;100.00
75192;BME280;63771;52.580;9.734;2024-03-02T08:22:14;100073.31;;;7.72;99.76
75192;BME280;63771;52.580;9.734;2024-03-02T08:24:40;100068.00;;;7.79;99.90
75192;BME280;63771;52.580;9.734;2024-03-02T08:27:06;100075.59;;;7.90;99.49
75192;BME280;63771;52.580;9.734;2024-03-02T08:29:31;100081.28;;;7.97;99.22
75192;BME280;63771;52.580;9.734;2024-03-02T08:31:56;100078.63;;;8.06;99.34
75192;BME280;63771;52.580;9.734;2024-03-02T08:34:22;100080.09;;;8.14;98.74
75192;BME280;63771;52.580;9.734;2024-03-02T08:36:47;100079.97;;;8.23;98.49
75192;BME280;63771;52.580;9.734;2024-03-02T08:39:13;100083.16;;;8.30;98.51
75192;BME280;63771;52.580;9.734;2024-03-02T08:41:49;100091.78;;;8.43;98.20
75192;BME280;63771;52.580;9.734;2024-03-02T08:44:15;100085.09;;;8.55;97.95
75192;BME280;63771;52.580;9.734;2024-03-02T08:46:40;100083.31;;;8.64;98.02
75192;BME280;63771;52.580;9.734;2024-03-02T08:49:06;100085.81;;;8.74;97.00
75192;BME280;63771;52.580;9.734;2024-03-02T08:51:32;100088.19;;;8.83;96.45
75192;BME280;63771;52.580;9.734;2024-03-02T08:53:57;100087.88;;;8.90;96.19
75192;BME280;63771;52.580;9.734;2024-03-02T08:56:23;100084.41;;;9.00;95.13
75192;BME280;63771;52.580;9.734;2024-03-02T08:58:49;100078.38;;;9.09;94.16
75192;BME280;63771;52.580;9.734;2024-03-02T09:01:15;100077.44;;;9.19;93.48
75192;BME280;63771;52.580;9.734;2024-03-02T09:03:41;100077.09;;;9.26;93.58
75192;BME280;63771;52.580;9.734;2024-03-02T09:06:09;100079.47;;;9.35;93.27
75192;BME280;63771;52.580;9.734;2024-03-02T09:08:34;100080.81;;;9.41;92.51
75192;BME280;63771;52.580;9.734;2024-03-02T09:11:02;100079.72;;;9.50;91.87
75192;BME280;63771;52.580;9.734;2024-03-02T09:13:27;100076.78;;;9.55;91.75
75192;BME280;63771;52.580;9.734;2024-03-02T09:15:52;100077.59;;;9.66;91.34
75192;BME280;63771;52.580;9.734;2024-03-02T09:18:18;100074.72;;;9.73;90.53
75192;BME280;63771;52.580;9.734;2024-03-02T09:20:43;100072.84;;;9.82;89.74
75192;BME280;63771;52.580;9.734;2024-03-02T09:23:08;100080.41;;;9.92;89.09
75192;BME280;63771;52.580;9.734;2024-03-02T09:25:34;100082.63;;;10.00;88.63
75192;BME280;63771;52.580;9.734;2024-03-02T09:27:59;100082.28;;;10.07;87.79
75192;BME280;63771;52.580;9.734;2024-03-02T09:30:24;100084.53;;;10.14;85.71
75192;BME280;63771;52.580;9.734;2024-03-02T09:32:50;100082.19;;;10.17;85.75
75192;BME280;63771;52.580;9.734;2024-03-02T09:35:15;100094.47;;;10.23;85.70
75192;BME280;63771;52.580;9.734;2024-03-02T09:37:41;100083.88;;;10.28;84.88
75192;BME280;63771;52.580;9.734;2024-03-02T09:40:07;100086.00;;;10.34;84.75
75192;BME280;63771;52.580;9.734;2024-03-02T09:42:32;100081.22;;;10.38;84.63
75192;BME280;63771;52.580;9.734;2024-03-02T09:44:59;100083.34;;;10.44;83.65
75192;BME280;63771;52.580;9.734;2024-03-02T09:47:24;100091.19;;;10.47;83.27
75192;BME280;63771;52.580;9.734;2024-03-02T09:49:49;100099.19;;;10.52;83.03
75192;BME280;63771;52.580;9.734;2024-03-02T09:52:15;100100.41;;;10.57;82.12
75192;BME280;63771;52.580;9.734;2024-03-02T09:54:41;100092.75;;;10.57;82.29
75192;BME280;63771;52.580;9.734;2024-03-02T09:57:06;100098.28;;;10.63;82.23
75192;BME280;63771;52.580;9.734;2024-03-02T09:59:32;100097.72;;;10.67;81.47
75192;BME280;63771;52.580;9.734;2024-03-02T10:01:58;100102.28;;;10.71;81.53
75192;BME280;63771;52.580;9.734;2024-03-02T10:04:26;100104.03;;;10.72;81.90
75192;BME280;63771;52.580;9.734;2024-03-02T10:06:51;100105.34;;;10.79;81.37
75192;BME280;63771;52.580;9.734;2024-03-02T10:09:27;100114.22;;;10.84;81.33
75192;BME280;63771;52.580;9.734;2024-03-02T10:11:53;100114.56;;;10.88;81.06
75192;BME280;63771;52.580;9.734;2024-03-02T10:14:19;100110.44;;;10.90;80.00
75192;BME280;63771;52.580;9.734;2024-03-02T10:16:45;100117.53;;;10.94;79.61
75192;BME280;63771;52.580;9.734;2024-03-02T10:19:20;100108.34;;;10.96;79.43
75192;BME280;63771;52.580;9.734;2024-03-02T10:21:49;100116.19;;;11.00;80.07
75192;BME280;63771;52.580;9.734;2024-03-02T10:24:16;100104.44;;;11.02;80.67
75192;BME280;63771;52.580;9.734;2024-03-02T10:26:41;100108.19;;;11.07;79.92
75192;BME280;63771;52.580;9.734;2024-03-02T10:29:09;100103.28;;;11.10;79.24
75192;BME280;63771;52.580;9.734;2024-03-02T10:31:36;100105.94;;;11.11;78.92
75192;BME280;63771;52.580;9.734;2024-03-02T10:34:02;100104.50;;;11.15;79.11
75192;BME280;63771;52.580;9.734;2024-03-02T10:36:29;100100.38;;;11.17;79.83
75192;BME280;63771;52.580;9.734;2024-03-02T10:38:56;100103.16;;;11.20;79.61
75192;BME280;63771;52.580;9.734;2024-03-02T10:41:26;100099.16;;;11.23;79.32
75192;BME280;63771;52.580;9.734;2024-03-02T10:43:56;100091.50;;;11.23;79.14
75192;BME280;63771;52.580;9.734;2024-03-02T10:46:27;100096.22;;;11.31;79.50
75192;BME280;63771;52.580;9.734;2024-03-02T10:48:55;100099.88;;;11.34;78.88
75192;BME280;63771;52.580;9.734;2024-03-02T10:51:20;100100.28;;;11.40;78.35
75192;BME280;63771;52.580;9.734;2024-03-02T10:53:45;100106.69;;;11.47;78.97
75192;BME280;63771;52.580;9.734;2024-03-02T10:56:16;100102.88;;;11.54;79.38
75192;BME280;63771;52.580;9.734;2024-03-02T10:58:48;100099.09;;;11.60;78.59
75192;BME280;63771;52.580;9.734;2024-03-02T11:01:16;100101.97;;;11.65;77.55
75192;BME280;63771;52.580;9.734;2024-03-02T11:03:42;100095.50;;;11.70;76.94
75192;BME280;63771;52.580;9.734;2024-03-02T11:06:09;100095.03;;;11.75;77.19
75192;BME280;63771;52.580;9.734;2024-03-02T11:08:38;100093.00;;;11.83;77.54
75192;BME280;63771;52.580;9.734;2024-03-02T11:11:09;100091.63;;;11.88;76.40
75192;BME280;63771;52.580;9.734;2024-03-02T11:13:38;100101.28;;;11.92;75.69
75192;BME280;63771;52.580;9.734;2024-03-02T11:16:12;100107.59;;;11.97;75.78
75192;BME280;63771;52.580;9.734;2024-03-02T11:18:42;100102.66;;;12.00;75.90
75192;BME280;63771;52.580;9.734;2024-03-02T11:21:08;100103.25;;;12.10;75.05
75192;BME280;63771;52.580;9.734;2024-03-02T11:23:34;100098.38;;;12.13;74.72
75192;BME280;63771;52.580;9.734;2024-03-02T11:26:19;100103.06;;;12.20;74.10
75192;BME280;63771;52.580;9.734;2024-03-02T11:28:45;100099.34;;;12.28;73.37
75192;BME280;63771;52.580;9.734;2024-03-02T11:31:11;100101.53;;;12.35;73.77
75192;BME280;63771;52.580;9.734;2024-03-02T11:33:36;100095.81;;;12.39;72.62
75192;BME280;63771;52.580;9.734;2024-03-02T11:36:01;100095.25;;;12.43;72.89
75192;BME280;63771;52.580;9.734;2024-03-02T11:38:31;100091.97;;;12.46;73.28
75192;BME280;63771;52.580;9.734;2024-03-02T11:40:59;100093.16;;;12.51;72.32
75192;BME280;63771;52.580;9.734;2024-03-02T11:43:25;100101.13;;;12.56;72.29
75192;BME280;63771;52.580;9.734;2024-03-02T11:45:59;100099.53;;;12.58;72.46
75192;BME280;63771;52.580;9.734;2024-03-02T11:48:25;100101.41;;;12.60;72.46
75192;BME280;63771;52.580;9.734;2024-03-02T11:50:51;100099.03;;;12.63;71.25
75192;BME280;63771;52.580;9.734;2024-03-02T11:53:18;100089.88;;;12.67;70.47
75192;BME280;63771;52.580;9.734;2024-03-02T11:55:44;100085.84;;;12.70;70.39
75192;BME280;63771;52.580;9.734;2024-03-02T11:58:14;100089.50;;;12.74;70.08
75192;BME280;63771;52.580;9.734;2024-03-02T12:00:39;100083.75;;;12.78;70.77
75192;BME280;63771;52.580;9.734;2024-03-02T12:03:09;100078.94;;;12.83;70.68
75192;BME280;63771;52.580;9.734;2024-03-02T12:05:35;100071.47;;;12.86;70.62
75192;BME280;63771;52.580;9.734;2024-03-02T12:08:03;100076.94;;;12.92;70.97
75192;BME280;63771;52.580;9.734;2024-03-02T12:10:29;100072.03;;;12.95;71.05
75192;BME280;63771;52.580;9.734;2024-03-02T12:12:56;100074.97;;;13.01;70.45
75192;BME280;63771;52.580;9.734;2024-03-02T12:15:31;100070.91;;;13.04;69.46
75192;BME280;63771;52.580;9.734;2024-03-02T12:17:59;100070.31;;;13.09;69.43
75192;BME280;63771;52.580;9.734;2024-03-02T12:20:26;100078.97;;;13.11;69.67
75192;BME280;63771;52.580;9.734;2024-03-02T12:22:53;100077.19;;;13.10;68.99
75192;BME280;63771;52.580;9.734;2024-03-02T12:25:23;100078.28;;;13.13;69.06
75192;BME280;63771;52.580;9.734;2024-03-02T12:27:51;100075.78;;;13.15;69.07
75192;BME280;63771;52.580;9.734;2024-03-02T12:30:20;100064.88;;;13.17;68.79
75192;BME280;63771;52.580;9.734;2024-03-02T12:32:46;100060.72;;;13.19;68.98
75192;BME280;63771;52.580;9.734;2024-03-02T12:35:13;100060.13;;;13.23;68.63
75192;BME280;63771;52.580;9.734;2024-03-02T12:37:45;100058.47;;;13.24;68.55
75192;BME280;63771;52.580;9.734;2024-03-02T12:40:12;100061.91;;;13.24;68.42
75192;BME280;63771;52.580;9.734;2024-03-02T12:42:38;100062.09;;;13.27;69.02
75192;BME280;63771;52.580;9.734;2024-03-02T12:45:04;100057.84;;;13.28;69.09
75192;BME280;63771;52.580;9.734;2024-03-02T12:47:29;100049.38;;;13.29;68.22
75192;BME280;63771;52.580;9.734;2024-03-02T12:49:55;100052.91;;;13.31;67.69
75192;BME280;63771;52.580;9.734;2024-03-02T12:52:21;100042.75;;;13.32;67.72
75192;BME280;63771;52.580;9.734;2024-03-02T12:54:47;100041.97;;;13.34;67.44